Time;durP1;ratioP1;P1;durP2;ratioP2;P2;SDS_P1;SDS_P2;PMS_P1;PMS_P2;Temp;Humidity;BMP_temperature;BMP_pressure;BME280_temperature;BME280_humidity;BME280_pressure;Samples;Min_cycle;Max_cycle;Signal;HPM_P1;HPM_P2
2022/01/23 00:00:43;;;;;;;24.50;22.00;;;;;21.20;102333.00;;;;2050749;28;20227;-66
2022/01/23 00:01:49;;;;;;;23.80;21.40;;;;;21.30;102328.00;;;;2064801;28;20246;-65
2022/01/23 00:02:50;;;;;;;25.08;22.45;;;;;21.20;102330.00;;;;2064651;28;20222;-63
2022/01/23 00:03:50;;;;;;;23.53;21.30;;;;;21.20;102325.00;;;;2067373;28;20221;-65
2022/01/23 00:04:51;;;;;;;23.90;21.50;;;;;21.20;102322.00;;;;2067396;28;21044;-65
2022/01/23 00:05:52;;;;;;;24.23;21.90;;;;;21.20;102328.00;;;;2068045;28;20671;-66
2022/01/23 00:06:52;;;;;;;23.92;21.48;;;;;21.20;102328.00;;;;2068611;28;20683;-64
2022/01/23 00:07:52;;;;;;;23.50;21.20;;;;;21.20;102330.00;;;;2068715;28;20222;-65
2022/01/23 00:08:53;;;;;;;23.23;21.03;;;;;21.20;102326.00;;;;2068718;28;20210;-64
2022/01/23 00:09:53;;;;;;;23.80;21.30;;;;;21.20;102307.00;;;;2068560;28;20214;-64
2022/01/23 00:10:55;;;;;;;22.97;20.57;;;;;21.20;102329.00;;;;2067693;28;20206;-65
2022/01/23 00:11:56;;;;;;;22.65;20.27;;;;;21.20;102329.00;;;;2067514;28;20238;-65
2022/01/23 00:13:09;;;;;;;23.20;20.77;;;;;21.20;102327.00;;;;2067596;28;20202;-66
2022/01/23 00:18:06;;;;;;;23.45;21.23;;;;;21.20;102313.00;;;;2068103;28;20211;-66
2022/01/23 00:19:06;;;;;;;23.03;20.83;;;;;21.20;102322.00;;;;2068445;28;20215;-66
2022/01/23 00:20:08;;;;;;;23.43;21.13;;;;;21.20;102315.00;;;;2068102;28;20836;-66
2022/01/23 00:21:08;;;;;;;20.85;18.85;;;;;21.20;102319.00;;;;2068621;28;20217;-66
2022/01/23 00:22:10;;;;;;;22.17;20.07;;;;;21.20;102314.00;;;;2068171;28;20214;-65
2022/01/23 00:23:20;;;;;;;21.20;19.10;;;;;21.10;102322.00;;;;2068088;28;20685;-66
2022/01/23 00:30:58;;;;;;;22.40;20.15;;;;;21.10;102301.00;;;;2065599;28;20218;-65
2022/01/23 00:31:58;;;;;;;21.63;19.52;;;;;21.10;102312.00;;;;2067678;28;20221;-65
2022/01/23 00:33:03;;;;;;;21.73;19.60;;;;;21.10;102309.00;;;;2069426;28;20217;-65
2022/01/23 00:34:03;;;;;;;20.90;18.90;;;;;21.10;102313.00;;;;2055943;28;20641;-65
2022/01/23 00:35:04;;;;;;;22.83;20.50;;;;;21.10;102300.00;;;;2077230;28;20214;-66
2022/01/23 00:36:04;;;;;;;20.80;18.80;;;;;21.10;102300.00;;;;2078788;28;20673;-66
2022/01/23 00:37:05;;;;;;;22.50;20.40;;;;;21.10;102302.00;;;;2067753;28;20304;-65
2022/01/23 00:38:06;;;;;;;21.93;19.83;;;;;21.10;102292.00;;;;2067193;28;20264;-65
2022/01/23 00:39:06;;;;;;;21.45;19.40;;;;;21.10;102305.00;;;;2066649;28;20249;-65
2022/01/23 00:40:07;;;;;;;21.27;19.33;;;;;21.10;102298.00;;;;2067484;28;20210;-65
2022/01/23 00:41:07;;;;;;;21.63;19.63;;;;;21.10;102298.00;;;;2058825;28;20293;-66
2022/01/23 00:42:09;;;;;;;20.60;18.70;;;;;21.10;102297.00;;;;2067264;28;20855;-65
2022/01/23 00:43:30;;;;;;;21.33;19.13;;;;;21.10;102304.00;;;;2067121;28;21083;-66
2022/01/23 00:44:31;;;;;;;21.20;19.13;;;;;21.10;102300.00;;;;2065953;28;20276;-65
2022/01/23 00:45:33;;;;;;;21.52;19.48;;;;;21.10;102302.00;;;;2068067;28;20219;-66
2022/01/23 00:46:36;;;;;;;21.00;18.95;;;;;21.10;102303.00;;;;2068332;28;20737;-65
2022/01/23 00:47:37;;;;;;;19.45;17.55;;;;;21.10;102310.00;;;;2068374;28;20997;-66
2022/01/23 00:48:41;;;;;;;19.57;17.77;;;;;21.10;102314.00;;;;2068553;28;20279;-65
2022/01/23 00:49:41;;;;;;;20.80;18.80;;;;;21.10;102314.00;;;;2064390;28;20210;-66
2022/01/23 00:50:43;;;;;;;19.77;17.83;;;;;21.10;102316.00;;;;2067572;28;20211;-65
2022/01/23 00:51:45;;;;;;;20.10;18.30;;;;;21.10;102318.00;;;;2067476;28;20301;-66
2022/01/23 00:52:45;;;;;;;20.50;18.50;;;;;21.10;102313.00;;;;2068059;28;20241;-66
2022/01/23 00:53:45;;;;;;;20.27;18.37;;;;;21.00;102315.00;;;;2068596;28;20221;-65
2022/01/23 00:54:47;;;;;;;19.13;17.40;;;;;21.00;102322.00;;;;2068497;28;20235;-66
2022/01/23 00:55:47;;;;;;;18.80;16.90;;;;;21.10;102315.00;;;;2063727;28;20218;-66
2022/01/23 00:56:47;;;;;;;19.70;17.87;;;;;21.00;102322.00;;;;2067960;28;20233;-65
2022/01/23 00:57:48;;;;;;;18.30;16.50;;;;;21.00;102309.00;;;;2061523;28;20242;-65
2022/01/23 00:58:48;;;;;;;18.90;17.03;;;;;21.00;102312.00;;;;2075987;28;20210;-65
2022/01/23 00:59:48;;;;;;;17.70;16.00;;;;;21.00;102316.00;;;;2073997;28;20214;-65
2022/01/23 01:00:49;;;;;;;19.70;17.73;;;;;21.00;102297.00;;;;2068206;28;20210;-66
2022/01/23 01:01:49;;;;;;;18.77;16.97;;;;;21.00;102310.00;;;;2067000;28;20226;-66
2022/01/23 01:02:49;;;;;;;18.70;16.90;;;;;21.00;102316.00;;;;2065257;28;20223;-65
2022/01/23 01:03:50;;;;;;;17.60;15.97;;;;;21.00;102323.00;;;;2067484;28;20266;-65
2022/01/23 01:04:50;;;;;;;18.43;16.83;;;;;21.00;102313.00;;;;2066932;28;20772;-64
2022/01/23 01:05:51;;;;;;;18.53;16.73;;;;;21.00;102315.00;;;;2068256;28;20563;-65
2022/01/23 01:06:52;;;;;;;17.80;16.10;;;;;21.00;102326.00;;;;2067488;28;20584;-65
2022/01/23 01:07:53;;;;;;;17.23;15.73;;;;;21.00;102316.00;;;;2067650;28;23438;-66
2022/01/23 01:09:00;;;;;;;18.85;16.88;;;;;21.00;102322.00;;;;2067705;28;20214;-65
2022/01/23 01:10:08;;;;;;;16.20;14.60;;;;;21.00;102323.00;;;;2064918;28;20210;-66
2022/01/23 01:11:42;;;;;;;15.88;14.43;;;;;21.00;102316.00;;;;2067249;28;20265;-65
2022/01/23 01:12:39;;;;;;;16.77;15.15;;;;;21.00;102322.00;;;;2067191;28;20667;-66
2022/01/23 01:14:08;;;;;;;16.33;14.73;;;;;21.00;102321.00;;;;2068321;28;20231;-65
2022/01/23 01:30:28;;;;;;;16.05;14.48;;;;;20.90;102318.00;;;;2064479;28;20593;-65
2022/01/23 01:34:04;;;;;;;14.63;13.15;;;;;20.90;102301.00;;;;2063911;28;20606;-66
2022/01/23 01:35:12;;;;;;;15.32;13.65;;;;;20.90;102300.00;;;;2067792;28;20780;-65
2022/01/23 01:36:28;;;;;;;15.85;14.35;;;;;20.90;102304.00;;;;2068223;28;20759;-65
2022/01/23 01:37:28;;;;;;;14.70;13.30;;;;;20.90;102295.00;;;;2064005;28;20218;-65
2022/01/23 01:38:30;;;;;;;14.60;13.30;;;;;20.90;102299.00;;;;2066867;28;20234;-66
2022/01/23 01:39:31;;;;;;;14.60;13.20;;;;;20.90;102301.00;;;;2066904;28;20733;-66
2022/01/23 01:40:31;;;;;;;14.00;12.70;;;;;20.90;102296.00;;;;2045594;28;20226;-66
2022/01/23 01:41:35;;;;;;;14.70;13.30;;;;;20.90;102294.00;;;;2066861;28;20756;-66
2022/01/23 01:42:35;;;;;;;14.52;13.02;;;;;20.90;102303.00;;;;2066632;28;20221;-66
2022/01/23 01:43:35;;;;;;;13.70;12.50;;;;;20.90;102295.00;;;;2066938;28;20211;-66
2022/01/23 01:44:36;;;;;;;15.10;13.80;;;;;20.90;102296.00;;;;2067961;28;20226;-66
2022/01/23 01:45:38;;;;;;;13.63;12.43;;;;;20.90;102296.00;;;;2068230;28;20235;-66
2022/01/23 01:46:38;;;;;;;14.43;13.10;;;;;20.90;102294.00;;;;2068218;28;20620;-65
2022/01/23 01:47:47;;;;;;;13.67;12.47;;;;;20.90;102290.00;;;;2059113;28;20227;-65
2022/01/23 01:48:47;;;;;;;13.63;12.23;;;;;20.90;102294.00;;;;2051637;28;20712;-65
2022/01/23 01:49:47;;;;;;;14.67;13.27;;;;;20.90;102290.00;;;;2064238;28;20270;-66
2022/01/23 01:50:48;;;;;;;12.70;11.60;;;;;20.90;102275.00;;;;2066508;28;20238;-66
2022/01/23 01:51:48;;;;;;;14.60;13.20;;;;;20.90;102283.00;;;;2067345;28;20225;-66
2022/01/23 01:52:48;;;;;;;14.43;13.03;;;;;20.90;102283.00;;;;2068006;28;20624;-66
2022/01/23 01:53:56;;;;;;;13.77;12.47;;;;;20.90;102287.00;;;;2068106;28;20838;-65
2022/01/23 01:55:04;;;;;;;14.18;12.90;;;;;20.90;102274.00;;;;2063730;28;20249;-66
2022/01/23 01:56:06;;;;;;;14.18;12.88;;;;;20.90;102290.00;;;;2067219;28;20218;-66
2022/01/23 01:57:09;;;;;;;13.25;12.05;;;;;20.90;102281.00;;;;2066450;28;20219;-66
2022/01/23 01:58:32;;;;;;;14.73;13.38;;;;;20.90;102280.00;;;;2067501;28;20225;-66
2022/01/23 02:00:47;;;;;;;14.25;12.85;;;;;20.90;102270.00;;;;2067119;28;20913;-65
2022/01/23 02:03:19;;;;;;;14.00;12.80;;;;;20.80;102268.00;;;;2068007;28;20256;-66
2022/01/23 02:08:36;;;;;;;13.50;12.30;;;;;20.80;102279.00;;;;2067203;28;20594;-66
2022/01/23 02:09:26;;;;;;;12.35;11.15;;;;;20.80;102285.00;;;;2061744;28;20206;-66
2022/01/23 02:10:26;;;;;;;13.05;11.80;;;;;20.80;102285.00;;;;2066921;28;20244;-66
2022/01/23 02:11:55;;;;;;;13.77;12.47;;;;;20.80;102295.00;;;;2067223;28;20207;-66
2022/01/23 02:15:47;;;;;;;14.38;13.18;;;;;20.80;102292.00;;;;2066854;28;20647;-66
2022/01/23 02:18:13;;;;;;;13.45;12.15;;;;;20.80;102289.00;;;;2063561;28;20301;-65
2022/01/23 02:50:53;;;;;;;14.35;13.05;;;;;20.70;102282.00;;;;2063693;28;20214;-66
2022/01/23 02:52:31;;;;;;;14.65;13.27;;;;;20.70;102281.00;;;;2066673;28;20623;-65
2022/01/23 02:54:53;;;;;;;13.90;12.60;;;;;20.70;102284.00;;;;2066294;28;20238;-65
2022/01/23 02:55:55;;;;;;;15.60;14.13;;;;;20.70;102288.00;;;;2064320;28;20221;-66
2022/01/23 02:57:00;;;;;;;15.13;13.80;;;;;20.70;102288.00;;;;2066796;28;20210;-65
2022/01/23 02:58:04;;;;;;;15.25;13.88;;;;;20.70;102289.00;;;;2063820;28;20210;-66
2022/01/23 02:59:22;;;;;;;15.60;14.05;;;;;20.60;102293.00;;;;2067045;28;20202;-66
2022/01/23 03:00:25;;;;;;;15.90;14.50;;;;;20.70;102300.00;;;;2064396;28;20217;-65
2022/01/23 03:01:31;;;;;;;16.05;14.55;;;;;20.70;102297.00;;;;2066798;28;20544;-65
2022/01/23 03:02:40;;;;;;;15.27;13.88;;;;;20.70;102293.00;;;;2063738;28;20291;-66
2022/01/23 03:03:44;;;;;;;14.88;13.40;;;;;20.70;102301.00;;;;2066415;28;20313;-65
2022/01/23 03:04:51;;;;;;;14.77;13.48;;;;;20.70;102290.00;;;;2063042;28;20218;-65
2022/01/23 03:08:26;;;;;;;15.75;14.25;;;;;20.70;102295.00;;;;2068746;28;20591;-66
2022/01/23 03:10:37;;;;;;;15.77;14.35;;;;;20.70;102290.00;;;;2068900;28;20214;-65
2022/01/23 03:13:50;;;;;;;15.80;14.27;;;;;20.60;102296.00;;;;2067098;28;20708;-66
2022/01/23 03:15:01;;;;;;;16.23;14.75;;;;;20.60;102301.00;;;;2068370;28;20214;-65
2022/01/23 03:24:21;;;;;;;14.70;13.35;;;;;20.60;102308.00;;;;2065354;28;20301;-65
2022/01/23 03:30:29;;;;;;;14.50;13.20;;;;;20.60;102306.00;;;;2068539;28;20779;-66
2022/01/23 03:31:38;;;;;;;13.60;12.40;;;;;20.60;102305.00;;;;2067996;28;20210;-66
2022/01/23 03:32:43;;;;;;;14.43;13.10;;;;;20.60;102306.00;;;;2065123;28;20213;-65
2022/01/23 03:33:43;;;;;;;15.25;13.90;;;;;20.60;102303.00;;;;2070331;28;20752;-66
2022/01/23 03:34:44;;;;;;;15.63;14.13;;;;;20.60;102300.00;;;;2068625;28;20210;-65
2022/01/23 03:35:45;;;;;;;14.30;12.97;;;;;20.60;102306.00;;;;2068252;28;20459;-66
2022/01/23 03:36:45;;;;;;;14.20;13.00;;;;;20.60;102312.00;;;;2068518;28;20238;-65
2022/01/23 03:37:46;;;;;;;14.80;13.50;;;;;20.60;102307.00;;;;2068405;28;20219;-66
2022/01/23 03:38:47;;;;;;;14.37;13.07;;;;;20.60;102311.00;;;;2068368;28;20215;-65
2022/01/23 03:39:47;;;;;;;13.95;12.65;;;;;20.60;102316.00;;;;2068809;28;20282;-65
2022/01/23 03:40:47;;;;;;;14.50;13.23;;;;;20.60;102313.00;;;;2068871;28;20210;-66
2022/01/23 03:41:48;;;;;;;15.40;14.00;;;;;20.60;102323.00;;;;2069253;28;20226;-66
2022/01/23 03:42:55;;;;;;;14.27;13.07;;;;;20.60;102328.00;;;;2068641;28;20246;-66
2022/01/23 03:43:57;;;;;;;15.18;13.85;;;;;20.50;102315.00;;;;2064611;28;20206;-65
2022/01/23 03:47:39;;;;;;;13.10;12.00;;;;;20.50;102316.00;;;;2064975;28;20644;-65
2022/01/23 03:49:42;;;;;;;13.20;12.00;;;;;20.60;102321.00;;;;2069024;28;20365;-65
2022/01/23 03:50:45;;;;;;;14.10;12.80;;;;;20.60;102325.00;;;;2068501;28;20218;-65
2022/01/23 03:51:45;;;;;;;13.60;12.48;;;;;20.50;102331.00;;;;2068203;28;20218;-65
2022/01/23 03:52:46;;;;;;;13.93;12.70;;;;;20.50;102323.00;;;;2068387;28;20234;-65
2022/01/23 03:53:46;;;;;;;13.53;12.33;;;;;20.50;102329.00;;;;2068324;28;20218;-66
2022/01/23 03:54:47;;;;;;;13.80;12.43;;;;;20.50;102320.00;;;;2068292;28;20222;-66
2022/01/23 03:55:50;;;;;;;14.33;13.13;;;;;20.50;102326.00;;;;2068198;28;20216;-66
2022/01/23 03:56:50;;;;;;;14.45;13.15;;;;;20.50;102321.00;;;;2067907;28;20252;-66
2022/01/23 03:57:50;;;;;;;12.97;11.87;;;;;20.50;102322.00;;;;2067824;28;20229;-65
2022/01/23 03:58:51;;;;;;;13.40;12.20;;;;;20.50;102312.00;;;;2069033;28;20211;-65
2022/01/23 03:59:51;;;;;;;13.00;11.87;;;;;20.50;102317.00;;;;2068856;28;20218;-66
2022/01/23 04:00:52;;;;;;;13.10;11.90;;;;;20.50;102320.00;;;;2068768;28;20214;-66
2022/01/23 04:01:52;;;;;;;13.10;11.90;;;;;20.50;102325.00;;;;2068355;28;20214;-65
2022/01/23 04:02:52;;;;;;;12.90;11.70;;;;;20.50;102322.00;;;;2068313;28;20214;-66
2022/01/23 04:03:56;;;;;;;13.57;12.37;;;;;20.50;102328.00;;;;2068315;28;20237;-66
2022/01/23 04:04:57;;;;;;;13.10;11.80;;;;;20.50;102322.00;;;;2068294;28;20218;-66
2022/01/23 04:05:57;;;;;;;13.07;11.87;;;;;20.50;102320.00;;;;2068888;28;20210;-66
2022/01/23 04:06:57;;;;;;;13.30;12.10;;;;;20.50;102316.00;;;;2068945;28;20233;-65
2022/01/23 04:07:58;;;;;;;14.10;12.73;;;;;20.50;102327.00;;;;2069023;28;20217;-65
2022/01/23 04:08:58;;;;;;;12.97;11.70;;;;;20.50;102327.00;;;;2068897;28;20221;-65
2022/01/23 04:09:58;;;;;;;13.20;12.00;;;;;20.50;102324.00;;;;2068278;28;20210;-65
2022/01/23 04:11:00;;;;;;;12.70;11.47;;;;;20.50;102329.00;;;;2067843;28;20245;-65
2022/01/23 04:12:01;;;;;;;12.90;11.63;;;;;20.50;102332.00;;;;2066511;28;20222;-66
2022/01/23 04:14:23;;;;;;;13.57;12.38;;;;;20.50;102326.00;;;;2066733;28;20675;-66
2022/01/23 04:15:39;;;;;;;12.57;11.40;;;;;20.50;102331.00;;;;2068791;28;20698;-66
2022/01/23 04:20:46;;;;;;;12.38;11.27;;;;;20.50;102322.00;;;;2065401;28;20219;-65
2022/01/23 04:45:08;;;;;;;11.60;10.50;;;;;20.50;102325.00;;;;2068451;28;20289;-66
2022/01/23 04:45:27;;;;;;;11.85;10.85;;;;;20.40;102323.00;;;;2072511;28;20210;-66
2022/01/23 04:47:23;;;;;;;12.07;10.98;;;;;20.40;102322.00;;;;2065605;28;20256;-66
2022/01/23 05:01:00;;;;;;;11.43;10.30;;;;;20.40;102325.00;;;;2027567;29;20257;-66
2022/01/23 05:02:15;;;;;;;11.93;10.70;;;;;20.40;102323.00;;;;2033721;29;20222;-65
2022/01/23 05:04:20;;;;;;;12.00;10.90;;;;;20.40;102330.00;;;;2067539;28;20215;-65
2022/01/23 05:05:26;;;;;;;10.98;9.90;;;;;20.40;102320.00;;;;2068269;28;20222;-65
2022/01/23 05:06:30;;;;;;;11.60;10.57;;;;;20.40;102323.00;;;;2068597;28;20297;-66
2022/01/23 05:07:31;;;;;;;11.55;10.55;;;;;20.40;102320.00;;;;2068470;28;20222;-65
2022/01/23 05:08:34;;;;;;;11.67;10.57;;;;;20.40;102323.00;;;;2064005;28;20222;-65
2022/01/23 05:09:35;;;;;;;12.93;11.75;;;;;20.40;102326.00;;;;2067720;28;20210;-66
2022/01/23 05:10:35;;;;;;;11.53;10.53;;;;;20.40;102323.00;;;;2067426;28;20698;-66
2022/01/23 05:11:37;;;;;;;11.77;10.67;;;;;20.40;102320.00;;;;2067728;28;20210;-66
2022/01/23 05:12:37;;;;;;;12.80;11.60;;;;;20.40;102321.00;;;;2068357;28;20249;-66
2022/01/23 05:13:38;;;;;;;12.50;11.40;;;;;20.40;102326.00;;;;2068495;28;20215;-65
2022/01/23 05:14:41;;;;;;;11.63;10.63;;;;;20.40;102322.00;;;;2068378;28;20221;-66
2022/01/23 05:15:42;;;;;;;12.90;11.70;;;;;20.40;102320.00;;;;2057373;28;20269;-65
2022/01/23 05:16:42;;;;;;;13.07;11.70;;;;;20.30;102327.00;;;;2059274;28;20218;-66
2022/01/23 05:17:43;;;;;;;11.57;10.50;;;;;20.30;102325.00;;;;2067491;28;20222;-66
2022/01/23 05:18:43;;;;;;;12.23;11.03;;;;;20.30;102324.00;;;;2066819;28;20736;-64
2022/01/23 05:19:43;;;;;;;12.90;11.77;;;;;20.40;102332.00;;;;2067277;28;20306;-65
2022/01/23 05:20:46;;;;;;;11.87;10.87;;;;;20.40;102327.00;;;;2068130;28;20218;-65
2022/01/23 05:22:02;;;;;;;11.55;10.45;;;;;20.30;102329.00;;;;2068482;28;20233;-66
2022/01/23 05:23:05;;;;;;;12.80;11.60;;;;;20.40;102333.00;;;;2064885;28;20690;-66
2022/01/23 05:24:06;;;;;;;12.02;11.00;;;;;20.40;102332.00;;;;2067683;28;20679;-66
2022/01/23 05:25:18;;;;;;;11.57;10.47;;;;;20.30;102332.00;;;;2067788;28;20223;-66
2022/01/23 05:26:18;;;;;;;13.25;12.05;;;;;20.30;102332.00;;;;2067204;28;20461;-66
2022/01/23 05:27:19;;;;;;;12.47;11.10;;;;;20.30;102325.00;;;;2067562;28;20214;-66
2022/01/23 05:28:19;;;;;;;12.33;11.23;;;;;20.30;102333.00;;;;2067553;28;20333;-66
2022/01/23 05:29:21;;;;;;;12.03;10.93;;;;;20.30;102331.00;;;;2067141;28;20214;-66
2022/01/23 05:30:22;;;;;;;12.50;11.40;;;;;20.30;102330.00;;;;2067413;28;20214;-66
2022/01/23 05:31:23;;;;;;;13.17;12.07;;;;;20.30;102330.00;;;;2067345;28;20227;-66
2022/01/23 05:32:25;;;;;;;12.43;11.33;;;;;20.30;102326.00;;;;2068124;28;20961;-66
2022/01/23 05:33:25;;;;;;;12.52;11.38;;;;;20.30;102337.00;;;;2068201;28;20203;-66
2022/01/23 05:34:26;;;;;;;12.87;11.67;;;;;20.30;102336.00;;;;2068196;28;20760;-66
2022/01/23 05:35:29;;;;;;;11.88;10.85;;;;;20.30;102332.00;;;;2067896;28;20214;-66
2022/01/23 05:36:29;;;;;;;12.23;10.95;;;;;20.30;102336.00;;;;2067464;28;20729;-65
2022/01/23 05:37:30;;;;;;;11.63;10.63;;;;;20.30;102331.00;;;;2067342;28;20214;-66
2022/01/23 05:38:30;;;;;;;13.30;12.07;;;;;20.30;102338.00;;;;2067452;28;20313;-66
2022/01/23 05:39:33;;;;;;;12.10;11.00;;;;;20.30;102328.00;;;;2067587;28;20562;-66
2022/01/23 05:40:33;;;;;;;12.93;11.75;;;;;20.30;102332.00;;;;2067176;28;20202;-66
2022/01/23 05:41:34;;;;;;;12.80;11.70;;;;;20.30;102324.00;;;;2067250;28;20202;-66
2022/01/23 05:42:34;;;;;;;11.47;10.47;;;;;20.30;102336.00;;;;2067186;28;20714;-66
2022/01/23 05:43:34;;;;;;;11.73;10.73;;;;;20.30;102340.00;;;;2067667;28;20216;-65
2022/01/23 05:44:35;;;;;;;12.00;10.90;;;;;20.30;102344.00;;;;2067999;28;20214;-66
2022/01/23 05:45:41;;;;;;;13.37;12.17;;;;;20.30;102334.00;;;;2068196;28;20202;-66
2022/01/23 05:46:41;;;;;;;12.85;11.65;;;;;20.30;102336.00;;;;2067600;28;20229;-66
2022/01/23 05:47:41;;;;;;;12.50;11.40;;;;;20.30;102336.00;;;;2066851;28;20241;-66
2022/01/23 05:48:42;;;;;;;13.20;12.00;;;;;20.30;102342.00;;;;2066880;28;20268;-66
2022/01/23 05:49:42;;;;;;;12.23;11.23;;;;;20.30;102326.00;;;;2067263;28;20214;-66
2022/01/23 05:50:43;;;;;;;12.27;11.07;;;;;20.30;102332.00;;;;2067117;28;20297;-65
2022/01/23 05:51:43;;;;;;;12.45;11.40;;;;;20.30;102332.00;;;;2068180;28;20310;-66
2022/01/23 05:52:44;;;;;;;12.13;11.03;;;;;20.30;102334.00;;;;2068117;28;20330;-66
2022/01/23 05:53:44;;;;;;;11.73;10.70;;;;;20.30;102334.00;;;;2068092;28;20215;-65
2022/01/23 05:54:44;;;;;;;12.30;11.20;;;;;20.30;102334.00;;;;2067673;28;20210;-65
2022/01/23 05:55:45;;;;;;;12.00;10.80;;;;;20.30;102334.00;;;;2067529;28;20215;-66
2022/01/23 05:56:46;;;;;;;12.53;11.43;;;;;20.30;102343.00;;;;2067600;28;20737;-65
2022/01/23 05:57:47;;;;;;;11.93;10.82;;;;;20.30;102340.00;;;;2065545;28;20227;-66
2022/01/23 05:58:47;;;;;;;12.80;11.70;;;;;20.30;102347.00;;;;2067281;28;20229;-65
2022/01/23 05:59:47;;;;;;;13.07;11.87;;;;;20.30;102340.00;;;;2067672;28;20219;-66
2022/01/23 06:00:48;;;;;;;12.33;11.33;;;;;20.30;102342.00;;;;2067847;28;20278;-65
2022/01/23 06:01:51;;;;;;;12.30;11.13;;;;;20.30;102340.00;;;;2067982;28;20277;-65
2022/01/23 06:02:52;;;;;;;11.65;10.65;;;;;20.30;102343.00;;;;2067745;28;20321;-66
2022/01/23 06:03:52;;;;;;;13.20;12.00;;;;;20.30;102332.00;;;;2067321;28;20268;-65
2022/01/23 06:04:54;;;;;;;13.20;12.00;;;;;20.30;102344.00;;;;2058575;28;20227;-65
2022/01/23 06:05:54;;;;;;;11.97;10.97;;;;;20.30;102350.00;;;;2058450;28;20290;-66
2022/01/23 06:06:59;;;;;;;11.83;10.77;;;;;20.30;102339.00;;;;2067327;28;20215;-65
2022/01/23 06:07:59;;;;;;;12.02;10.93;;;;;20.30;102330.00;;;;2063898;28;20829;-66
2022/01/23 06:08:59;;;;;;;11.10;10.10;;;;;20.30;102344.00;;;;2067362;28;20309;-66
2022/01/23 06:10:00;;;;;;;11.00;10.00;;;;;20.30;102349.00;;;;2067010;28;20215;-66
2022/01/23 06:11:00;;;;;;;11.13;10.13;;;;;20.30;102352.00;;;;2067083;28;20225;-65
2022/01/23 06:12:00;;;;;;;11.23;10.30;;;;;20.30;102348.00;;;;2068038;28;20215;-65
2022/01/23 06:13:01;;;;;;;11.03;10.13;;;;;20.40;102350.00;;;;2068032;28;20210;-65
2022/01/23 06:14:02;;;;;;;9.70;8.90;;;;;20.30;102344.00;;;;2067957;28;20245;-65
2022/01/23 06:15:03;;;;;;;11.07;10.10;;;;;20.40;102345.00;;;;2068010;28;20533;-66
2022/01/23 06:16:03;;;;;;;10.43;9.50;;;;;20.40;102337.00;;;;2057118;28;20888;-65
2022/01/23 06:17:04;;;;;;;10.23;9.40;;;;;20.40;102346.00;;;;2067988;28;20207;-66
2022/01/23 06:18:04;;;;;;;11.03;9.93;;;;;20.40;102347.00;;;;2068013;28;20233;-66
2022/01/23 06:19:04;;;;;;;10.03;9.13;;;;;20.40;102348.00;;;;2067146;28;20198;-65
2022/01/23 06:20:08;;;;;;;10.47;9.50;;;;;20.40;102349.00;;;;2066387;28;20516;-65
2022/01/23 06:21:08;;;;;;;9.30;8.45;;;;;20.40;102342.00;;;;2066871;28;20265;-66
2022/01/23 06:22:09;;;;;;;10.40;9.50;;;;;20.40;102349.00;;;;2067144;28;20214;-66
2022/01/23 06:23:09;;;;;;;10.23;9.27;;;;;20.40;102348.00;;;;2067014;28;20207;-65
2022/01/23 06:24:15;;;;;;;10.97;9.90;;;;;20.40;102357.00;;;;2068066;28;20247;-66
2022/01/23 06:25:17;;;;;;;8.85;8.15;;;;;20.40;102355.00;;;;2067902;28;20686;-66
2022/01/23 06:26:17;;;;;;;9.02;8.23;;;;;20.40;102358.00;;;;2067630;28;20249;-65
2022/01/23 06:27:18;;;;;;;10.00;9.10;;;;;20.40;102357.00;;;;2067015;28;20218;-66
2022/01/23 06:28:41;;;;;;;10.00;9.10;;;;;20.50;102355.00;;;;2067142;28;20210;-66
2022/01/23 06:29:43;;;;;;;10.68;9.77;;;;;20.50;102358.00;;;;2061246;28;20760;-65
2022/01/23 06:30:43;;;;;;;11.30;10.30;;;;;20.50;102353.00;;;;2065452;28;20210;-66
2022/01/23 06:31:46;;;;;;;8.23;7.43;;;;;20.50;102356.00;;;;2058310;28;20207;-65
2022/01/23 06:32:46;;;;;;;9.90;9.10;;;;;20.50;102351.00;;;;2067307;28;20935;-65
2022/01/23 06:33:46;;;;;;;10.17;9.17;;;;;20.50;102356.00;;;;2067975;28;20305;-66
2022/01/23 06:34:47;;;;;;;7.87;7.10;;;;;20.50;102355.00;;;;2067961;28;20226;-66
2022/01/23 06:35:47;;;;;;;8.03;7.30;;;;;20.50;102354.00;;;;2067603;28;20221;-65
2022/01/23 06:36:50;;;;;;;8.43;7.63;;;;;20.50;102361.00;;;;2066983;28;20686;-65
2022/01/23 06:37:50;;;;;;;10.00;9.07;;;;;20.50;102356.00;;;;2066833;28;20733;-66
2022/01/23 06:38:51;;;;;;;9.60;8.70;;;;;20.50;102358.00;;;;2067173;28;20214;-66
2022/01/23 06:39:51;;;;;;;9.03;8.20;;;;;20.50;102357.00;;;;2067456;28;20572;-66
2022/01/23 06:40:51;;;;;;;8.20;7.40;;;;;20.50;102357.00;;;;2066524;28;20239;-66
2022/01/23 06:41:52;;;;;;;7.00;6.40;;;;;20.60;102357.00;;;;2066790;28;20226;-66
2022/01/23 06:42:52;;;;;;;8.03;7.23;;;;;20.50;102353.00;;;;2067691;28;20214;-66
2022/01/23 06:43:52;;;;;;;8.87;8.07;;;;;20.60;102354.00;;;;2067708;28;20209;-66
2022/01/23 06:44:53;;;;;;;9.40;8.60;;;;;20.60;102358.00;;;;2067082;28;20214;-66
2022/01/23 06:45:53;;;;;;;9.73;8.93;;;;;20.60;102354.00;;;;2066967;28;20218;-66
2022/01/23 06:46:54;;;;;;;7.87;7.17;;;;;20.60;102359.00;;;;2067028;28;20222;-66
2022/01/23 06:47:54;;;;;;;9.50;8.60;;;;;20.60;102357.00;;;;2065582;28;20230;-65
2022/01/23 06:48:54;;;;;;;8.63;7.80;;;;;20.60;102361.00;;;;2067739;28;20590;-66
2022/01/23 06:49:55;;;;;;;7.67;6.97;;;;;20.60;102336.00;;;;2067835;28;20670;-66
2022/01/23 06:50:55;;;;;;;9.60;8.70;;;;;20.60;102361.00;;;;2067173;28;20698;-65
2022/01/23 06:51:55;;;;;;;8.27;7.47;;;;;20.60;102346.00;;;;2067183;28;20300;-66
2022/01/23 06:52:56;;;;;;;7.47;6.80;;;;;20.60;102353.00;;;;2065547;28;20221;-66
2022/01/23 06:53:56;;;;;;;9.00;8.20;;;;;20.60;102353.00;;;;2066235;28;20653;-66
2022/01/23 06:54:56;;;;;;;7.90;7.20;;;;;20.60;102355.00;;;;2066389;28;20300;-65
2022/01/23 06:55:57;;;;;;;9.80;8.90;;;;;20.60;102354.00;;;;2066798;28;20600;-66
2022/01/23 06:56:57;;;;;;;7.53;6.90;;;;;20.60;102358.00;;;;2067010;28;20752;-65
2022/01/23 06:57:57;;;;;;;8.27;7.57;;;;;20.60;102356.00;;;;2067846;28;20704;-65
2022/01/23 06:58:58;;;;;;;8.40;7.60;;;;;20.60;102352.00;;;;2067866;28;20217;-65
2022/01/23 06:59:58;;;;;;;8.27;7.57;;;;;20.60;102366.00;;;;2067602;28;20234;-66
2022/01/23 07:00:58;;;;;;;7.40;6.70;;;;;20.70;102354.00;;;;2067556;28;20220;-65
2022/01/23 07:01:59;;;;;;;7.90;7.20;;;;;20.70;102360.00;;;;2066919;28;20213;-66
2022/01/23 07:02:59;;;;;;;7.57;6.93;;;;;20.70;102357.00;;;;2068704;28;20217;-66
2022/01/23 07:03:59;;;;;;;7.10;6.50;;;;;20.70;102361.00;;;;2067195;28;20717;-63
2022/01/23 07:05:00;;;;;;;7.80;7.10;;;;;20.70;102359.00;;;;2067151;28;20214;-64
2022/01/23 07:06:00;;;;;;;9.00;8.27;;;;;20.70;102369.00;;;;2066485;28;20213;-66
2022/01/23 07:07:00;;;;;;;9.07;8.27;;;;;20.70;102357.00;;;;2063898;28;20701;-65
2022/01/23 07:08:01;;;;;;;7.93;6.90;;;;;20.70;102365.00;;;;2066821;28;20214;-65
2022/01/23 07:09:01;;;;;;;8.57;7.87;;;;;20.70;102367.00;;;;2066551;28;20226;-65
2022/01/23 07:10:01;;;;;;;8.23;7.43;;;;;20.70;102368.00;;;;2066964;28;20243;-65
2022/01/23 07:11:02;;;;;;;8.13;7.43;;;;;20.70;102366.00;;;;2067243;28;20214;-65
2022/01/23 07:12:02;;;;;;;8.00;7.23;;;;;20.70;102366.00;;;;2067484;28;20297;-65
2022/01/23 07:13:03;;;;;;;8.37;7.57;;;;;20.70;102369.00;;;;2067250;28;20214;-65
2022/01/23 07:14:03;;;;;;;8.40;7.60;;;;;20.70;102376.00;;;;2067017;28;20697;-65
2022/01/23 07:15:04;;;;;;;9.40;8.50;;;;;20.70;102372.00;;;;2066643;28;20217;-65
2022/01/23 07:16:06;;;;;;;8.43;7.73;;;;;20.70;102376.00;;;;2064026;28;20721;-65
2022/01/23 07:17:06;;;;;;;8.15;7.45;;;;;20.70;102376.00;;;;2066556;28;20214;-66
2022/01/23 07:18:07;;;;;;;8.20;7.40;;;;;20.70;102381.00;;;;2066664;28;20685;-65
2022/01/23 07:19:07;;;;;;;8.27;7.57;;;;;20.70;102376.00;;;;2066077;28;20232;-66
2022/01/23 07:20:08;;;;;;;7.50;6.80;;;;;20.70;102375.00;;;;2066129;28;20586;-66